Time;durP1;ratioP1;P1;durP2;ratioP2;P2;SDS_P1;SDS_P2;PMS_P1;PMS_P2;Temp;Humidity;BMP_temperature;BMP_pressure;BME280_temperature;BME280_humidity;BME280_pressure;Samples;Min_cycle;Max_cycle;Signal;HPM_P1;HPM_P2
2022/11/03 00:00:08;;;;;;;1.17;0.40;;;21.00;99.90;;;;;;4994135;28;20199;-73
2022/11/03 00:02:41;;;;;;;1.20;0.30;;;21.00;99.90;;;;;;4994206;28;20652;-72
2022/11/03 00:07:59;;;;;;;1.88;0.40;;;21.20;99.90;;;;;;4994356;28;20293;-74
2022/11/03 00:10:29;;;;;;;0.75;0.38;;;21.30;99.90;;;;;;4992151;28;20674;-74
2022/11/03 00:13:00;;;;;;;0.80;0.30;;;21.20;99.90;;;;;;4993859;28;20194;-73
2022/11/03 00:15:31;;;;;;;0.52;0.30;;;21.10;99.90;;;;;;4992229;28;20191;-74
2022/11/03 00:18:03;;;;;;;1.27;0.20;;;21.20;99.90;;;;;;4994047;28;20191;-73
2022/11/03 00:20:34;;;;;;;1.85;0.50;;;21.40;99.90;;;;;;4992623;28;20192;-74
2022/11/03 00:23:05;;;;;;;3.17;0.30;;;21.80;99.90;;;;;;4993711;28;20188;-73
2022/11/03 00:25:36;;;;;;;1.15;0.30;;;21.70;99.90;;;;;;4992735;28;20211;-74
2022/11/03 00:28:07;;;;;;;0.70;0.30;;;21.90;99.90;;;;;;4993584;28;20279;-74
2022/11/03 00:30:38;;;;;;;0.40;0.30;;;22.00;99.90;;;;;;4993258;28;20211;-74
2022/11/03 00:33:11;;;;;;;0.47;0.20;;;22.20;99.90;;;;;;4994407;28;20200;-75
2022/11/03 00:35:41;;;;;;;0.60;0.28;;;22.00;99.90;;;;;;4993983;28;20228;-73
2022/11/03 00:38:13;;;;;;;1.60;0.73;;;21.60;99.90;;;;;;4993865;28;20226;-73
2022/11/03 00:40:43;;;;;;;0.28;0.20;;;21.60;99.90;;;;;;4992653;28;20659;-73
2022/11/03 00:43:14;;;;;;;0.98;0.38;;;21.40;99.90;;;;;;4993515;28;20192;-73
2022/11/03 00:45:45;;;;;;;1.02;0.50;;;21.50;99.90;;;;;;4993325;28;20183;-73
2022/11/03 00:48:33;;;;;;;0.65;0.50;;;21.40;99.90;;;;;;4993273;28;20184;-73
2022/11/03 00:51:09;;;;;;;1.80;0.30;;;21.50;99.90;;;;;;4991519;28;20205;-73
2022/11/03 00:53:41;;;;;;;3.30;0.45;;;21.70;99.90;;;;;;4992635;28;20533;-74
2022/11/03 00:56:14;;;;;;;0.52;0.30;;;21.70;99.90;;;;;;4993292;28;20191;-75
2022/11/03 00:58:46;;;;;;;3.15;0.45;;;21.50;99.90;;;;;;4992464;28;20607;-74
2022/11/03 01:01:18;;;;;;;1.15;0.40;;;21.20;99.90;;;;;;4993156;28;20194;-74
2022/11/03 01:06:51;;;;;;;1.77;0.47;;;20.80;99.90;;;;;;4978887;28;20187;-74
2022/11/03 01:09:23;;;;;;;0.85;0.40;;;20.70;99.90;;;;;;4992947;28;20704;-75
2022/11/03 01:11:58;;;;;;;0.77;0.40;;;20.60;99.90;;;;;;4992346;28;20194;-74
2022/11/03 01:14:31;;;;;;;0.40;0.30;;;20.30;99.90;;;;;;4991539;28;20188;-73
2022/11/03 01:17:02;;;;;;;0.50;0.30;;;20.10;99.90;;;;;;4993080;28;20206;-73
2022/11/03 01:19:35;;;;;;;0.40;0.22;;;19.80;99.90;;;;;;4990525;28;20250;-74
2022/11/03 01:22:06;;;;;;;1.23;0.30;;;19.60;99.90;;;;;;4984931;28;20656;-78
2022/11/03 01:24:38;;;;;;;2.75;0.22;;;19.50;99.90;;;;;;4991814;28;20199;-73
2022/11/03 01:27:08;;;;;;;1.55;0.50;;;19.40;99.90;;;;;;4990579;28;20200;-74
2022/11/03 01:29:40;;;;;;;0.52;0.43;;;19.30;99.90;;;;;;4989979;28;20215;-75
2022/11/03 01:32:11;;;;;;;1.33;0.40;;;19.40;99.90;;;;;;4987858;28;20214;-75
2022/11/03 01:34:44;;;;;;;0.80;0.30;;;19.40;99.90;;;;;;4985809;28;20294;-73
2022/11/03 01:37:15;;;;;;;2.35;0.30;;;19.40;99.90;;;;;;4992644;28;20219;-75
2022/11/03 01:39:46;;;;;;;1.42;0.30;;;19.30;99.90;;;;;;4987500;28;20231;-72
2022/11/03 01:42:17;;;;;;;2.05;0.40;;;19.20;99.90;;;;;;4990709;28;20196;-73
2022/11/03 01:44:51;;;;;;;0.80;0.40;;;19.10;99.90;;;;;;4993112;28;20551;-76
2022/11/03 01:47:27;;;;;;;0.80;0.30;;;19.10;99.90;;;;;;4989973;28;20286;-73
2022/11/03 01:50:04;;;;;;;0.95;0.32;;;19.10;99.90;;;;;;4990385;28;20229;-72
2022/11/03 01:52:39;;;;;;;0.32;0.20;;;19.00;99.90;;;;;;4991495;28;20571;-73
2022/11/03 01:55:13;;;;;;;1.02;0.30;;;18.90;99.90;;;;;;4991046;28;20227;-75
2022/11/03 01:57:49;;;;;;;1.20;0.30;;;18.80;99.90;;;;;;4988468;28;20196;-74
2022/11/03 02:00:20;;;;;;;1.17;0.30;;;18.80;99.90;;;;;;4983844;28;20199;-73
2022/11/03 02:02:52;;;;;;;1.00;0.30;;;18.80;99.90;;;;;;4991139;28;20192;-74
2022/11/03 02:05:27;;;;;;;0.98;0.22;;;19.00;99.90;;;;;;4982741;28;20200;-73
2022/11/03 02:08:03;;;;;;;0.20;0.20;;;19.20;99.90;;;;;;4989785;28;20195;-73
2022/11/03 02:10:34;;;;;;;2.25;0.35;;;19.40;99.90;;;;;;4992488;28;20682;-75
2022/11/03 02:13:12;;;;;;;0.85;0.30;;;19.40;99.90;;;;;;4983931;28;20652;-75
2022/11/03 02:15:44;;;;;;;1.38;0.25;;;19.20;99.90;;;;;;4986362;28;20238;-75
2022/11/03 02:18:15;;;;;;;1.48;0.40;;;19.20;99.90;;;;;;4991008;28;20236;-78
2022/11/03 02:20:50;;;;;;;0.45;0.30;;;19.10;99.90;;;;;;4991145;28;20195;-72
2022/11/03 02:23:29;;;;;;;0.50;0.30;;;19.10;99.90;;;;;;4989525;28;20643;-74
2022/11/03 02:26:02;;;;;;;0.75;0.28;;;19.10;99.90;;;;;;4996997;28;20291;-73
2022/11/03 02:28:34;;;;;;;1.30;0.30;;;19.00;99.90;;;;;;4989528;28;20210;-73
2022/11/03 02:31:13;;;;;;;1.80;0.63;;;18.90;99.90;;;;;;4991736;28;20221;-74
2022/11/03 02:33:51;;;;;;;0.50;0.30;;;18.90;99.90;;;;;;4993419;28;20203;-73
2022/11/03 02:36:26;;;;;;;0.60;0.20;;;18.90;99.90;;;;;;4990714;28;20223;-73
2022/11/03 02:39:02;;;;;;;0.85;0.40;;;18.80;99.90;;;;;;4994441;28;20227;-73
2022/11/03 02:41:38;;;;;;;0.52;0.30;;;18.90;99.90;;;;;;4990321;28;20226;-75
2022/11/03 02:44:15;;;;;;;1.02;0.20;;;18.90;99.90;;;;;;4988515;28;20206;-75
2022/11/03 02:46:48;;;;;;;0.65;0.32;;;18.90;99.90;;;;;;4991792;28;20198;-76
2022/11/03 02:49:18;;;;;;;0.57;0.20;;;18.90;99.90;;;;;;4994575;28;20223;-73
2022/11/03 02:51:49;;;;;;;1.90;0.60;;;18.90;99.90;;;;;;4990222;28;20188;-75
2022/11/03 02:54:25;;;;;;;0.30;0.25;;;18.90;99.90;;;;;;4992050;28;20210;-75
2022/11/03 02:57:04;;;;;;;1.95;0.50;;;18.90;99.90;;;;;;4996539;28;20646;-74
2022/11/03 02:59:39;;;;;;;1.48;0.32;;;19.00;99.90;;;;;;4995315;28;20203;-73
2022/11/03 03:02:13;;;;;;;2.60;0.55;;;19.00;99.90;;;;;;4985115;28;20646;-75
2022/11/03 03:04:47;;;;;;;1.48;0.38;;;19.10;99.90;;;;;;4994415;28;20634;-75
2022/11/03 03:07:23;;;;;;;0.98;0.40;;;19.00;99.90;;;;;;4995411;28;20199;-76
2022/11/03 03:10:00;;;;;;;1.00;0.40;;;19.00;99.90;;;;;;4996330;28;20207;-76
2022/11/03 03:12:35;;;;;;;1.38;0.30;;;18.90;99.90;;;;;;4996909;28;20194;-76
2022/11/03 03:15:08;;;;;;;0.28;0.20;;;19.00;99.90;;;;;;4988610;28;20191;-74
2022/11/03 03:17:48;;;;;;;0.95;0.40;;;19.10;99.90;;;;;;4995645;28;20203;-76
2022/11/03 03:20:27;;;;;;;1.20;0.40;;;19.40;99.90;;;;;;4991148;28;20200;-76
2022/11/03 03:23:01;;;;;;;0.68;0.30;;;19.70;99.90;;;;;;4988506;28;20211;-74
2022/11/03 03:25:35;;;;;;;0.50;0.20;;;19.80;99.90;;;;;;4988788;28;20201;-75
2022/11/03 03:28:12;;;;;;;0.98;0.30;;;19.70;99.90;;;;;;4987850;28;20196;-75
2022/11/03 03:30:45;;;;;;;3.78;0.40;;;19.70;99.90;;;;;;4984301;28;20673;-73
2022/11/03 03:33:17;;;;;;;2.42;0.50;;;19.70;99.90;;;;;;4988850;28;20560;-74
2022/11/03 03:35:51;;;;;;;1.38;0.30;;;19.80;99.90;;;;;;4994003;28;20271;-76
2022/11/03 03:38:26;;;;;;;0.50;0.30;;;20.00;99.90;;;;;;4992036;28;20196;-73
2022/11/03 03:41:01;;;;;;;0.28;0.10;;;20.20;99.90;;;;;;4994699;28;20203;-72
2022/11/03 03:43:36;;;;;;;1.00;0.28;;;20.30;99.90;;;;;;4993998;28;20654;-75
2022/11/03 03:46:08;;;;;;;1.70;0.40;;;20.40;99.90;;;;;;4993808;28;20274;-72
2022/11/03 03:48:39;;;;;;;0.50;0.30;;;20.40;99.90;;;;;;4995263;28;20210;-75
2022/11/03 03:51:10;;;;;;;0.90;0.30;;;20.30;99.90;;;;;;4992667;28;20220;-73
2022/11/03 03:53:41;;;;;;;0.85;0.20;;;20.20;99.90;;;;;;4993703;28;20659;-75
2022/11/03 03:56:12;;;;;;;1.60;0.40;;;20.00;99.90;;;;;;4986828;28;20192;-75
2022/11/03 03:58:45;;;;;;;1.20;0.30;;;19.90;99.90;;;;;;4987321;28;20196;-73
2022/11/03 04:01:16;;;;;;;0.65;0.40;;;19.80;99.90;;;;;;4984984;28;20200;-76
2022/11/03 04:03:47;;;;;;;1.05;0.40;;;20.00;99.90;;;;;;4992970;28;20663;-74
2022/11/03 04:06:18;;;;;;;1.05;0.40;;;20.20;99.90;;;;;;4990438;28;20203;-74
2022/11/03 04:08:48;;;;;;;1.08;0.32;;;20.40;99.90;;;;;;4989894;28;20200;-76
2022/11/03 04:22:35;;;;;;;4.88;0.40;;;20.50;99.90;;;;;;4993046;28;20569;-76
2022/11/03 04:25:07;;;;;;;1.15;0.30;;;20.40;99.90;;;;;;4983350;28;20200;-76
2022/11/03 04:27:39;;;;;;;0.82;0.25;;;20.40;99.90;;;;;;4989486;28;20196;-74
2022/11/03 04:30:18;;;;;;;0.95;0.30;;;20.40;99.90;;;;;;4990361;28;20226;-75
2022/11/03 04:32:49;;;;;;;0.68;0.20;;;20.40;99.90;;;;;;4990800;28;20203;-76
2022/11/03 04:35:23;;;;;;;0.17;0.10;;;20.40;99.90;;;;;;4991724;28;20207;-72
2022/11/03 04:37:57;;;;;;;2.88;0.40;;;20.30;99.90;;;;;;4987800;28;20318;-73
2022/11/03 04:40:28;;;;;;;0.40;0.20;;;20.20;99.90;;;;;;4986883;28;20235;-74
2022/11/03 04:43:00;;;;;;;6.22;2.25;;;20.20;99.90;;;;;;4993607;28;20202;-73
2022/11/03 04:45:34;;;;;;;3.83;1.45;;;20.30;99.90;;;;;;4989053;28;20198;-76
2022/11/03 04:48:12;;;;;;;1.55;0.25;;;20.30;99.90;;;;;;4988949;28;20203;-71
2022/11/03 04:50:44;;;;;;;0.25;0.20;;;20.30;99.90;;;;;;4985282;28;20215;-75
2022/11/03 04:53:17;;;;;;;0.95;0.20;;;20.40;99.90;;;;;;4981147;28;20210;-71
2022/11/03 04:55:49;;;;;;;1.15;0.20;;;20.30;99.90;;;;;;4991123;28;20199;-75
2022/11/03 04:58:22;;;;;;;2.42;0.30;;;20.20;99.90;;;;;;4986714;28;20211;-73
2022/11/03 05:00:57;;;;;;;0.25;0.20;;;20.20;99.90;;;;;;4990136;28;20218;-75
2022/11/03 05:03:31;;;;;;;2.63;0.40;;;20.30;99.90;;;;;;4985872;28;20195;-75
2022/11/03 05:06:11;;;;;;;1.60;0.20;;;20.40;99.90;;;;;;4993262;28;20198;-75
2022/11/03 05:08:42;;;;;;;0.35;0.10;;;20.50;99.90;;;;;;4992896;28;20205;-74
2022/11/03 05:11:22;;;;;;;1.23;0.22;;;20.30;99.90;;;;;;4992242;28;20254;-73
2022/11/03 05:13:53;;;;;;;0.75;0.15;;;20.00;99.90;;;;;;4992691;28;20584;-72
2022/11/03 05:16:26;;;;;;;0.43;0.30;;;20.00;99.90;;;;;;4991604;28;20660;-72
2022/11/03 05:18:58;;;;;;;0.57;0.20;;;20.00;99.90;;;;;;4990156;28;20226;-73
2022/11/03 05:21:30;;;;;;;1.08;0.20;;;20.10;99.90;;;;;;4992998;28;20200;-77
2022/11/03 05:24:04;;;;;;;0.10;0.10;;;20.00;99.90;;;;;;4992747;28;20199;-78
2022/11/03 05:26:37;;;;;;;0.40;0.30;;;19.80;99.90;;;;;;4991989;28;20195;-77
2022/11/03 05:29:17;;;;;;;1.42;0.30;;;19.70;99.90;;;;;;4990508;28;20196;-72
2022/11/03 05:31:51;;;;;;;1.23;0.30;;;19.70;99.90;;;;;;4988234;28;20211;-71
2022/11/03 05:34:33;;;;;;;2.22;0.60;;;19.60;99.90;;;;;;4990347;28;20199;-72
2022/11/03 05:37:15;;;;;;;2.05;0.40;;;19.60;99.90;;;;;;4986011;28;20227;-72
2022/11/03 05:39:49;;;;;;;2.47;0.55;;;19.50;99.90;;;;;;4988001;28;20242;-72
2022/11/03 05:42:29;;;;;;;2.10;0.60;;;19.30;99.90;;;;;;4992860;28;20197;-73
2022/11/03 05:45:02;;;;;;;2.33;0.40;;;19.30;99.90;;;;;;4982602;28;20207;-75
2022/11/03 05:47:39;;;;;;;3.13;0.50;;;19.10;99.90;;;;;;4992259;28;20669;-75
2022/11/03 05:50:23;;;;;;;2.65;0.45;;;18.90;99.90;;;;;;4991522;28;20682;-74
2022/11/03 05:52:57;;;;;;;2.13;0.47;;;18.80;99.90;;;;;;4994685;28;20192;-73
2022/11/03 05:55:33;;;;;;;1.98;0.63;;;18.60;99.90;;;;;;4997464;28;20578;-72
2022/11/03 05:58:13;;;;;;;2.58;0.50;;;18.70;99.90;;;;;;4997742;28;20260;-72
2022/11/03 06:00:45;;;;;;;3.00;0.80;;;18.70;99.90;;;;;;4997087;28;20318;-72
2022/11/03 06:03:23;;;;;;;2.45;0.70;;;18.60;99.90;;;;;;4998020;28;20198;-74
2022/11/03 06:05:54;;;;;;;2.95;0.50;;;18.60;99.90;;;;;;4998806;28;20659;-73
2022/11/03 06:08:28;;;;;;;5.07;1.00;;;18.70;99.90;;;;;;4998124;28;20562;-73
2022/11/03 06:11:01;;;;;;;4.95;0.75;;;18.90;99.90;;;;;;4999647;28;20223;-77
2022/11/03 06:13:36;;;;;;;3.40;0.60;;;19.10;99.90;;;;;;4992040;28;20191;-72
2022/11/03 06:16:16;;;;;;;2.22;0.55;;;19.10;99.90;;;;;;4996401;28;20207;-72
2022/11/03 06:18:49;;;;;;;4.43;0.50;;;19.30;99.90;;;;;;4998755;28;20187;-73
2022/11/03 06:21:24;;;;;;;2.70;0.60;;;19.40;99.90;;;;;;4991659;28;20203;-71
2022/11/03 06:23:56;;;;;;;5.25;0.50;;;19.40;99.90;;;;;;4998617;28;20202;-72
2022/11/03 06:26:29;;;;;;;2.90;0.70;;;19.20;99.90;;;;;;4996122;28;20198;-71
2022/11/03 06:29:01;;;;;;;3.17;0.80;;;19.10;99.90;;;;;;4996346;28;20670;-72
2022/11/03 06:31:35;;;;;;;2.10;0.60;;;18.90;99.90;;;;;;4999268;28;20227;-71
2022/11/03 06:34:35;;;;;;;6.25;0.77;;;19.00;99.90;;;;;;4996980;28;20195;-71
2022/11/03 06:37:16;;;;;;;4.63;0.60;;;18.90;99.90;;;;;;4993330;28;20627;-72
2022/11/03 06:39:48;;;;;;;2.47;0.70;;;18.80;99.90;;;;;;4995630;28;20233;-72
2022/11/03 06:42:22;;;;;;;4.63;0.70;;;18.80;99.90;;;;;;4998125;28;20196;-72
2022/11/03 06:44:53;;;;;;;5.97;0.82;;;18.70;99.90;;;;;;4995587;28;20281;-71
2022/11/03 06:47:26;;;;;;;3.80;0.50;;;18.80;99.90;;;;;;4990917;28;20207;-72
2022/11/03 06:50:00;;;;;;;5.03;0.50;;;18.70;99.90;;;;;;4999346;28;20190;-71
2022/11/03 06:52:34;;;;;;;3.88;0.60;;;18.60;99.90;;;;;;4997897;28;20785;-72
2022/11/03 06:55:23;;;;;;;4.70;0.63;;;18.60;99.90;;;;;;4996026;28;20686;-73
2022/11/03 06:57:59;;;;;;;4.07;0.77;;;18.40;99.90;;;;;;4994224;28;20199;-72
2022/11/03 07:00:30;;;;;;;4.03;0.70;;;18.30;99.90;;;;;;4995822;28;20205;-72
2022/11/03 07:03:08;;;;;;;3.42;0.88;;;18.20;99.90;;;;;;4997778;28;20651;-72
2022/11/03 07:05:43;;;;;;;3.95;0.75;;;18.20;99.90;;;;;;4992461;28;20204;-73
2022/11/03 07:08:26;;;;;;;3.78;0.88;;;18.20;99.90;;;;;;4995161;28;20203;-72
2022/11/03 07:11:08;;;;;;;4.43;0.80;;;18.00;99.90;;;;;;4995198;28;20222;-72
2022/11/03 07:13:39;;;;;;;4.55;0.60;;;17.90;99.90;;;;;;4991036;28;20203;-72
2022/11/03 07:16:17;;;;;;;2.97;0.90;;;17.80;99.90;;;;;;4992031;28;20246;-72
2022/11/03 07:18:49;;;;;;;2.85;1.10;;;17.80;99.90;;;;;;4994784;28;20274;-74
2022/11/03 07:21:38;;;;;;;6.68;1.00;;;17.80;99.90;;;;;;4992038;28;20659;-76
2022/11/03 07:24:18;;;;;;;3.50;0.90;;;17.70;99.90;;;;;;4994128;28;20298;-74
2022/11/03 07:26:49;;;;;;;3.92;0.70;;;17.70;99.90;;;;;;4993028;28;20191;-74
2022/11/03 07:29:26;;;;;;;6.68;0.90;;;17.70;99.90;;;;;;4992347;28;20230;-72
2022/11/03 07:32:01;;;;;;;5.65;0.90;;;17.60;99.90;;;;;;4984613;28;20691;-72
2022/11/03 07:34:35;;;;;;;7.15;1.10;;;17.60;99.90;;;;;;4991520;28;20261;-72
2022/11/03 07:37:11;;;;;;;4.80;0.75;;;17.40;99.90;;;;;;4990503;28;20211;-76
2022/11/03 07:39:42;;;;;;;5.63;1.00;;;17.40;99.90;;;;;;4992393;28;20237;-74
2022/11/03 07:42:21;;;;;;;4.03;0.90;;;17.40;99.90;;;;;;4986983;28;20211;-72
2022/11/03 07:44:53;;;;;;;4.50;0.90;;;17.40;99.90;;;;;;4991371;28;20199;-75
2022/11/03 07:47:26;;;;;;;4.30;0.88;;;17.40;99.90;;;;;;4989580;28;20195;-76
2022/11/03 07:49:57;;;;;;;6.55;1.10;;;17.30;99.90;;;;;;4994221;28;20227;-72
2022/11/03 07:52:30;;;;;;;4.57;0.80;;;17.30;99.90;;;;;;4994202;28;20220;-74
2022/11/03 07:55:02;;;;;;;5.13;0.90;;;17.20;99.90;;;;;;4992405;28;20286;-72
2022/11/03 07:57:35;;;;;;;5.15;1.02;;;17.20;99.90;;;;;;4991052;28;20234;-72
2022/11/03 08:00:10;;;;;;;5.43;0.82;;;17.20;99.90;;;;;;4991756;28;20191;-72
2022/11/03 08:02:46;;;;;;;3.17;1.00;;;17.20;99.90;;;;;;4989685;28;20585;-72
2022/11/03 08:05:18;;;;;;;4.72;1.10;;;17.20;99.90;;;;;;4990378;28;20199;-75
2022/11/03 08:07:55;;;;;;;7.65;1.35;;;17.20;99.90;;;;;;4991939;28;20187;-75
2022/11/03 08:10:29;;;;;;;4.28;1.10;;;17.20;99.90;;;;;;4992467;28;20191;-72
2022/11/03 08:13:02;;;;;;;3.85;0.98;;;17.10;99.90;;;;;;4993056;28;20196;-73
2022/11/03 08:15:33;;;;;;;4.72;1.23;;;17.20;99.90;;;;;;4993363;28;20200;-75
2022/11/03 08:18:04;;;;;;;7.22;1.25;;;17.20;99.90;;;;;;4990737;28;20299;-74
2022/11/03 08:20:35;;;;;;;6.53;1.10;;;17.10;99.90;;;;;;4991075;28;20195;-75
2022/11/03 08:23:10;;;;;;;7.03;1.17;;;17.10;99.90;;;;;;4987063;28;20200;-75
2022/11/03 08:25:42;;;;;;;7.30;1.10;;;17.00;99.90;;;;;;4992611;28;20249;-75
2022/11/03 08:28:15;;;;;;;7.78;1.35;;;17.00;99.90;;;;;;4992855;28;20203;-74
2022/11/03 08:30:47;;;;;;;6.20;1.05;;;17.00;99.90;;;;;;4992121;28;20219;-75
2022/11/03 08:33:31;;;;;;;10.85;1.20;;;16.90;99.90;;;;;;4990905;28;20273;-72
2022/11/03 08:36:02;;;;;;;5.47;1.10;;;16.80;99.90;;;;;;4993014;28;20596;-72
2022/11/03 08:38:35;;;;;;;6.35;1.05;;;16.80;99.90;;;;;;4990553;28;20195;-72
2022/11/03 08:41:11;;;;;;;7.55;1.30;;;16.80;99.90;;;;;;4990720;28;20211;-72
2022/11/03 08:43:42;;;;;;;7.57;1.20;;;16.80;99.90;;;;;;4988409;28;20226;-71
2022/11/03 08:46:13;;;;;;;5.57;1.10;;;16.70;99.90;;;;;;4989103;28;20196;-73
2022/11/03 08:48:44;;;;;;;6.78;0.90;;;16.70;99.90;;;;;;4992381;28;20215;-71
2022/11/03 08:51:16;;;;;;;11.95;1.42;;;16.70;99.90;;;;;;4993453;28;20215;-72
2022/11/03 08:53:52;;;;;;;7.35;1.35;;;16.70;99.90;;;;;;4993361;28;20570;-72
2022/11/03 08:56:24;;;;;;;7.38;1.33;;;16.70;99.90;;;;;;4989483;28;20251;-73
2022/11/03 08:58:55;;;;;;;5.80;1.30;;;16.70;99.90;;;;;;4991582;28;20208;-72
2022/11/03 09:01:26;;;;;;;6.13;1.30;;;16.70;99.90;;;;;;4988655;28;20203;-72
2022/11/03 09:03:57;;;;;;;5.65;1.17;;;16.80;99.90;;;;;;4987545;28;20673;-72
2022/11/03 09:06:27;;;;;;;6.43;1.52;;;16.70;99.90;;;;;;4990918;28;20206;-72
2022/11/03 09:09:00;;;;;;;6.90;1.30;;;16.80;99.90;;;;;;4993880;28;20218;-72
2022/11/03 09:11:31;;;;;;;6.80;1.17;;;16.80;99.90;;;;;;4992734;28;20217;-73
2022/11/03 09:14:02;;;;;;;6.40;1.42;;;16.80;99.90;;;;;;4988500;28;20678;-74
2022/11/03 09:16:34;;;;;;;6.30;1.70;;;16.80;99.90;;;;;;4990546;28;20691;-76
2022/11/03 09:19:05;;;;;;;5.50;1.40;;;16.80;99.90;;;;;;4991121;28;20196;-75
2022/11/03 09:21:35;;;;;;;7.32;1.42;;;16.80;99.90;;;;;;4990912;28;20195;-75
2022/11/03 09:24:09;;;;;;;6.25;1.10;;;16.80;99.90;;;;;;4992626;28;20198;-73
2022/11/03 09:26:40;;;;;;;10.48;1.27;;;16.80;99.90;;;;;;4991922;28;20208;-72
2022/11/03 09:29:14;;;;;;;8.02;1.30;;;16.80;99.90;;;;;;4991446;28;20223;-70
2022/11/03 09:31:45;;;;;;;8.50;1.25;;;16.80;99.90;;;;;;4989735;28;20270;-76
2022/11/03 09:34:16;;;;;;;6.43;1.20;;;16.80;99.90;;;;;;4991672;28;20224;-75
2022/11/03 09:36:46;;;;;;;5.82;1.35;;;16.70;99.90;;;;;;4990583;28;20227;-74
2022/11/03 09:39:19;;;;;;;6.57;1.20;;;16.70;99.90;;;;;;4990408;28;20241;-75
2022/11/03 09:41:50;;;;;;;6.35;0.90;;;16.70;99.90;;;;;;4991257;28;20200;-75
2022/11/03 09:44:21;;;;;;;5.32;1.25;;;16.60;99.90;;;;;;4985966;28;20282;-74
2022/11/03 09:46:52;;;;;;;6.55;1.23;;;16.60;99.90;;;;;;4990495;28;20191;-75
2022/11/03 09:49:23;;;;;;;4.00;1.17;;;16.50;99.90;;;;;;4991668;28;20195;-74
2022/11/03 09:51:55;;;;;;;6.95;1.00;;;16.50;99.90;;;;;;4992343;28;20215;-75
2022/11/03 09:54:28;;;;;;;4.93;1.33;;;16.50;99.90;;;;;;4989992;28;20200;-75
2022/11/03 09:57:07;;;;;;;8.43;1.65;;;16.50;99.90;;;;;;4989097;28;20191;-75
2022/11/03 09:59:40;;;;;;;10.73;1.80;;;16.50;99.90;;;;;;4991316;28;20192;-75
2022/11/03 10:02:22;;;;;;;8.75;1.80;;;16.50;99.90;;;;;;4992761;28;20198;-73
2022/11/03 10:04:54;;;;;;;8.65;1.80;;;16.50;99.90;;;;;;4992264;28;20200;-72
2022/11/03 10:07:28;;;;;;;8.98;1.75;;;16.50;99.90;;;;;;4988118;28;20188;-75
2022/11/03 10:10:02;;;;;;;7.07;1.50;;;16.50;99.90;;;;;;4992383;28;20278;-75
2022/11/03 10:12:37;;;;;;;8.75;1.50;;;16.50;99.90;;;;;;4991968;28;20219;-73
2022/11/03 10:15:14;;;;;;;7.68;1.40;;;16.40;99.90;;;;;;4989177;28;20623;-75
2022/11/03 10:17:46;;;;;;;10.40;1.50;;;16.40;99.90;;;;;;4992079;28;20730;-72
2022/11/03 10:20:18;;;;;;;5.43;1.20;;;16.40;99.90;;;;;;4991268;28;20200;-75
2022/11/03 10:22:54;;;;;;;7.47;1.10;;;16.40;99.90;;;;;;4991621;28;20740;-75
2022/11/03 10:25:47;;;;;;;7.07;1.10;;;16.40;99.90;;;;;;4989968;28;20286;-74
2022/11/03 10:28:21;;;;;;;4.90;0.95;;;16.50;99.90;;;;;;4990153;28;20210;-71
2022/11/03 10:30:53;;;;;;;7.97;1.20;;;16.40;99.90;;;;;;4990691;28;20247;-73
2022/11/03 10:33:32;;;;;;;3.78;1.00;;;16.40;99.90;;;;;;4984932;28;20220;-75
2022/11/03 10:36:04;;;;;;;3.78;0.90;;;16.30;99.90;;;;;;4990503;28;20227;-72
2022/11/03 10:38:36;;;;;;;3.30;0.80;;;16.30;99.90;;;;;;4989780;28;20192;-75
2022/11/03 10:41:19;;;;;;;6.07;1.02;;;16.30;99.90;;;;;;4994639;28;20265;-72
2022/11/03 10:44:03;;;;;;;2.90;0.90;;;16.30;99.90;;;;;;4994640;28;20196;-76
2022/11/03 10:46:35;;;;;;;6.50;1.02;;;16.20;99.90;;;;;;4990766;28;20199;-73
2022/11/03 10:49:07;;;;;;;4.13;0.90;;;16.20;99.90;;;;;;4993270;28;20565;-75
2022/11/03 10:51:38;;;;;;;4.22;1.10;;;16.20;99.90;;;;;;4993413;28;20203;-75
2022/11/03 10:54:13;;;;;;;5.50;0.95;;;16.20;99.90;;;;;;4995350;28;20208;-74
2022/11/03 10:56:47;;;;;;;4.38;0.93;;;16.20;99.90;;;;;;4993271;28;20330;-75
2022/11/03 10:59:20;;;;;;;5.68;1.27;;;16.10;99.90;;;;;;4994358;28;20230;-73
2022/11/03 11:01:51;;;;;;;5.60;1.15;;;16.10;99.90;;;;;;4991773;28;20207;-74
2022/11/03 11:04:23;;;;;;;4.00;1.10;;;16.00;99.90;;;;;;4994927;28;20205;-71
2022/11/03 11:06:54;;;;;;;5.65;1.50;;;16.00;99.90;;;;;;4995021;28;20195;-71
2022/11/03 11:09:28;;;;;;;4.72;1.40;;;16.00;99.90;;;;;;4993176;28;21659;-74
2022/11/03 11:12:05;;;;;;;5.68;1.42;;;16.00;99.90;;;;;;4993737;28;20217;-71
2022/11/03 11:14:52;;;;;;;4.63;1.20;;;16.00;99.90;;;;;;4993954;28;20234;-71
2022/11/03 11:17:44;;;;;;;7.82;1.33;;;16.10;99.90;;;;;;4993804;28;20231;-74
2022/11/03 11:20:42;;;;;;;5.57;1.20;;;16.10;99.90;;;;;;4995085;28;20196;-74
2022/11/03 11:23:51;;;;;;;7.07;1.15;;;16.10;99.90;;;;;;4991358;28;20211;-72
2022/11/03 11:26:43;;;;;;;7.05;1.40;;;16.10;99.90;;;;;;4989977;28;20211;-72
2022/11/03 11:29:45;;;;;;;3.72;1.10;;;16.00;99.90;;;;;;4994392;28;20663;-72
2022/11/03 11:32:50;;;;;;;5.70;1.23;;;16.00;99.90;;;;;;4994625;28;20210;-73
2022/11/03 11:36:08;;;;;;;4.75;1.20;;;16.00;99.90;;;;;;4992920;28;20589;-74
2022/11/03 11:39:12;;;;;;;3.03;0.90;;;16.00;99.90;;;;;;4992547;28;20223;-73
2022/11/03 11:42:15;;;;;;;6.05;1.10;;;16.00;99.90;;;;;;4992039;28;20250;-72
2022/11/03 11:45:06;;;;;;;3.10;0.77;;;16.00;99.90;;;;;;4992475;28;20234;-73
2022/11/03 11:47:51;;;;;;;4.80;1.23;;;16.00;99.90;;;;;;4993805;28;20199;-72
2022/11/03 11:50:32;;;;;;;3.97;1.00;;;16.00;99.90;;;;;;4991787;28;20564;-73
2022/11/03 11:53:15;;;;;;;5.78;1.20;;;16.10;99.90;;;;;;4989899;28;20219;-73
2022/11/03 11:55:57;;;;;;;5.63;1.02;;;16.10;99.90;;;;;;4991727;28;20199;-72
2022/11/03 11:58:34;;;;;;;6.22;1.27;;;16.10;99.90;;;;;;4991260;28;20195;-72
2022/11/03 12:01:21;;;;;;;4.10;0.98;;;16.00;99.90;;;;;;4993342;28;20241;-72
2022/11/03 12:03:53;;;;;;;6.20;1.13;;;16.00;99.90;;;;;;4993024;28;20203;-72
2022/11/03 12:06:35;;;;;;;6.68;0.95;;;16.00;99.90;;;;;;4992373;28;20234;-74
2022/11/03 12:09:10;;;;;;;2.67;0.90;;;16.00;99.90;;;;;;4991327;28;20203;-73
2022/11/03 12:11:45;;;;;;;4.57;0.98;;;16.00;99.90;;;;;;4993521;28;20888;-74
2022/11/03 12:14:28;;;;;;;5.40;1.10;;;15.90;99.90;;;;;;4993504;28;20207;-73
2022/11/03 12:17:01;;;;;;;4.70;1.45;;;15.90;99.90;;;;;;4990991;28;20231;-72
2022/11/03 12:19:42;;;;;;;7.68;1.67;;;15.90;99.90;;;;;;4991560;28;20204;-72
2022/11/03 12:22:14;;;;;;;5.20;1.10;;;15.80;99.90;;;;;;4990808;28;20616;-73
2022/11/03 12:24:52;;;;;;;4.28;1.30;;;15.80;99.90;;;;;;4991796;28;20200;-73
2022/11/03 12:27:44;;;;;;;3.92;1.15;;;15.80;99.90;;;;;;4985997;28;20187;-73
2022/11/03 12:30:17;;;;;;;6.70;1.05;;;15.70;99.90;;;;;;4991610;28;20211;-75
2022/11/03 12:32:54;;;;;;;5.53;1.52;;;15.70;99.90;;;;;;4990207;28;20307;-73
2022/11/03 12:35:24;;;;;;;5.70;1.33;;;15.70;99.90;;;;;;4993423;28;20199;-73
2022/11/03 12:37:55;;;;;;;5.00;1.35;;;15.60;99.90;;;;;;4993357;28;20201;-72
2022/11/03 12:40:26;;;;;;;5.72;1.27;;;15.60;99.90;;;;;;4988208;28;20720;-72
2022/11/03 12:42:56;;;;;;;6.20;1.30;;;15.60;99.90;;;;;;4991533;28;20199;-72
2022/11/03 12:45:27;;;;;;;5.05;1.15;;;15.50;99.90;;;;;;4992700;28;20323;-73
2022/11/03 12:48:00;;;;;;;5.55;1.17;;;15.50;99.90;;;;;;4990348;28;20196;-73
2022/11/03 12:50:31;;;;;;;5.57;1.20;;;15.50;99.90;;;;;;4994280;28;20219;-73
2022/11/03 12:53:03;;;;;;;8.95;1.60;;;15.50;99.90;;;;;;4988828;28;20247;-72
2022/11/03 12:55:34;;;;;;;3.75;1.20;;;15.50;99.90;;;;;;4991906;28;20196;-72
2022/11/03 12:58:05;;;;;;;5.30;1.40;;;15.50;99.90;;;;;;4988285;28;20279;-72
2022/11/03 13:00:36;;;;;;;6.55;1.13;;;15.50;99.90;;;;;;4994165;28;20722;-72
2022/11/03 13:03:08;;;;;;;4.78;1.33;;;15.60;99.90;;;;;;4988865;28;20203;-73
2022/11/03 13:05:39;;;;;;;6.80;1.48;;;15.60;99.90;;;;;;4990058;28;20214;-72
2022/11/03 13:08:10;;;;;;;9.60;1.60;;;15.60;99.90;;;;;;4993925;28;20286;-72
2022/11/03 13:10:41;;;;;;;9.13;1.25;;;15.70;99.90;;;;;;4991449;28;20282;-74
2022/11/03 13:13:12;;;;;;;7.25;1.40;;;15.70;99.90;;;;;;4989650;28;20275;-73
2022/11/03 13:15:43;;;;;;;5.93;1.30;;;15.70;99.90;;;;;;4993270;28;20204;-72
2022/11/03 13:18:15;;;;;;;5.55;1.30;;;15.70;99.90;;;;;;4986546;28;20210;-72
2022/11/03 13:20:46;;;;;;;8.07;1.27;;;15.70;99.90;;;;;;4989433;28;20190;-76
2022/11/03 13:23:17;;;;;;;6.22;1.10;;;15.80;99.90;;;;;;4986374;28;20214;-75
2022/11/03 13:25:47;;;;;;;5.95;1.33;;;15.80;99.90;;;;;;4987144;28;20195;-75
2022/11/03 13:28:18;;;;;;;6.32;1.20;;;15.80;99.90;;;;;;4993302;28;20206;-74
2022/11/03 13:30:49;;;;;;;7.47;1.40;;;15.80;99.90;;;;;;4988492;28;20199;-72
2022/11/03 13:33:22;;;;;;;7.00;1.00;;;15.80;99.90;;;;;;4993423;28;20211;-73
2022/11/03 13:35:53;;;;;;;3.58;1.02;;;15.80;99.90;;;;;;4986713;28;20698;-73
2022/11/03 13:38:23;;;;;;;4.82;1.08;;;15.80;99.90;;;;;;4992606;28;20632;-75
2022/11/03 13:40:54;;;;;;;6.32;1.23;;;15.90;99.90;;;;;;4989667;28;20191;-72